createdAt,value
2017-01-31T00:02:07.043Z,3.00
2017-01-31T00:07:03.423Z,2.86
2017-01-31T00:11:59.446Z,2.90
2017-01-31T00:16:56.974Z,2.93
2017-01-31T00:21:53.036Z,2.82
2017-01-31T00:26:49.615Z,2.82
2017-01-31T00:31:47.525Z,2.85
2017-01-31T00:36:43.593Z,2.90
2017-01-31T00:41:40.622Z,2.95
2017-01-31T00:46:37.375Z,2.82
2017-01-31T00:51:33.841Z,2.90
2017-01-31T00:56:30.372Z,2.86
2017-01-31T01:01:26.713Z,2.90
2017-01-31T01:06:23.114Z,2.93
2017-01-31T01:11:19.430Z,2.93
2017-01-31T01:16:15.420Z,3.00
2017-01-31T01:21:11.922Z,2.97
2017-01-31T01:26:08.462Z,2.92
2017-01-31T01:31:07.206Z,2.93
2017-01-31T01:36:02.930Z,2.93
2017-01-31T01:40:59.308Z,2.93
2017-01-31T01:45:55.614Z,2.98
2017-01-31T01:50:51.980Z,3.04
2017-01-31T01:55:48.335Z,3.04
2017-01-31T02:00:44.794Z,3.01
2017-01-31T02:05:41.314Z,3.04
2017-01-31T02:10:37.783Z,3.08
2017-01-31T02:15:35.292Z,3.04
2017-01-31T02:20:31.533Z,3.08
2017-01-31T02:25:28.033Z,3.14
2017-01-31T02:30:24.348Z,3.22
2017-01-31T02:35:20.735Z,3.18
2017-01-31T02:40:16.631Z,3.14
2017-01-31T02:45:13.062Z,3.10
2017-01-31T02:50:09.684Z,3.04
2017-01-31T02:55:06.057Z,3.07
2017-01-31T03:00:02.391Z,3.05
2017-01-31T03:04:58.789Z,3.01
2017-01-31T03:09:55.352Z,3.08
2017-01-31T03:14:51.874Z,3.08
2017-01-31T03:19:48.276Z,3.07
2017-01-31T03:24:44.707Z,3.10
2017-01-31T03:29:41.113Z,3.08
2017-01-31T03:34:39.345Z,3.19
2017-01-31T03:39:35.210Z,3.16
2017-01-31T03:44:33.317Z,3.14
2017-01-31T03:49:29.715Z,3.18
2017-01-31T03:54:26.168Z,3.05
2017-01-31T03:59:22.455Z,3.11
2017-01-31T04:04:19.189Z,3.03
2017-01-31T04:09:15.411Z,3.14
2017-01-31T04:14:11.807Z,3.05
2017-01-31T04:19:08.329Z,3.14
2017-01-31T04:24:04.653Z,3.05
2017-01-31T04:29:01.302Z,3.10
2017-01-31T04:33:57.734Z,3.10
2017-01-31T04:38:55.017Z,3.10
2017-01-31T04:43:51.273Z,3.04
2017-01-31T04:48:47.639Z,2.92
2017-01-31T04:53:44.740Z,2.95
2017-01-31T04:58:41.139Z,2.95
2017-01-31T05:03:37.340Z,2.98
2017-01-31T05:08:33.745Z,3.00
2017-01-31T05:13:29.985Z,2.97
2017-01-31T05:18:26.473Z,2.95
2017-01-31T05:23:24.258Z,2.98
2017-01-31T05:28:20.454Z,2.92
2017-01-31T05:33:16.648Z,2.89
2017-01-31T05:38:13.108Z,2.90
2017-01-31T05:43:09.551Z,2.85
2017-01-31T05:48:06.125Z,2.89
2017-01-31T05:53:02.173Z,2.95
2017-01-31T05:57:58.519Z,2.90
2017-01-31T06:02:55.145Z,2.89
2017-01-31T06:07:51.693Z,3.01
2017-01-31T06:12:47.966Z,2.95
2017-01-31T06:17:45.130Z,2.86
2017-01-31T06:22:44.851Z,2.77
2017-01-31T06:27:40.250Z,2.85
2017-01-31T06:32:37.510Z,2.87
2017-01-31T06:37:33.968Z,2.86
2017-01-31T06:42:30.669Z,2.85
2017-01-31T06:47:26.849Z,2.85
2017-01-31T06:52:23.174Z,2.82
2017-01-31T06:57:19.759Z,2.85
2017-01-31T07:02:16.703Z,2.61
2017-01-31T07:07:12.919Z,2.57
2017-01-31T07:12:09.221Z,2.60
2017-01-31T07:17:05.641Z,2.57
2017-01-31T07:22:01.979Z,2.61
2017-01-31T07:26:58.236Z,2.62
2017-01-31T07:31:54.423Z,2.57
2017-01-31T07:36:50.803Z,2.62
2017-01-31T07:41:47.269Z,2.44
2017-01-31T07:46:43.601Z,2.61
2017-01-31T07:51:39.958Z,2.60
2017-01-31T07:56:36.412Z,2.60
2017-01-31T08:01:32.722Z,2.60
2017-01-31T08:06:29.432Z,2.80
2017-01-31T08:11:25.854Z,2.69
2017-01-31T08:16:22.422Z,2.80
2017-01-31T08:21:18.878Z,2.82
2017-01-31T08:26:15.417Z,3.05
2017-01-31T08:31:11.893Z,3.19
2017-01-31T08:36:08.411Z,3.18
2017-01-31T08:41:05.114Z,3.23
2017-01-31T08:46:01.643Z,3.10
2017-01-31T08:50:58.157Z,3.26
2017-01-31T08:55:54.557Z,3.29
2017-01-31T09:00:51.737Z,3.31
2017-01-31T09:05:48.775Z,3.36
2017-01-31T09:10:45.148Z,3.37
2017-01-31T09:15:44.017Z,3.41
2017-01-31T09:20:39.828Z,3.26
2017-01-31T09:25:35.712Z,3.07
2017-01-31T09:30:32.050Z,3.22
2017-01-31T09:35:28.550Z,3.51
2017-01-31T09:40:25.050Z,3.59
2017-01-31T09:45:21.348Z,3.42
2017-01-31T09:50:17.723Z,3.37
2017-01-31T09:55:14.086Z,3.50
2017-01-31T10:00:10.508Z,3.53
2017-01-31T10:05:06.966Z,3.36
2017-01-31T10:10:04.384Z,3.29
2017-01-31T10:15:00.924Z,3.48
2017-01-31T10:19:57.218Z,3.37
2017-01-31T10:24:54.307Z,3.47
2017-01-31T10:29:50.661Z,3.65
2017-01-31T10:34:47.099Z,3.80
2017-01-31T10:39:43.761Z,3.73
2017-01-31T10:44:40.837Z,3.74
2017-01-31T10:49:38.478Z,3.94
2017-01-31T10:54:34.938Z,3.78
2017-01-31T10:59:31.511Z,3.66
2017-01-31T11:04:27.810Z,3.62
2017-01-31T11:09:24.221Z,3.66
2017-01-31T11:14:20.305Z,3.74
2017-01-31T11:19:17.515Z,3.53
2017-01-31T11:24:13.851Z,3.65
2017-01-31T11:29:10.397Z,3.65
2017-01-31T11:34:06.646Z,3.55
2017-01-31T11:39:04.086Z,3.68
2017-01-31T11:44:01.047Z,3.53
2017-01-31T11:48:57.322Z,3.51
2017-01-31T11:53:53.695Z,3.53
2017-01-31T11:58:50.011Z,3.32
2017-01-31T12:03:46.485Z,3.22
2017-01-31T12:08:42.903Z,3.45
2017-01-31T12:13:40.304Z,3.70
2017-01-31T12:18:36.534Z,3.73
2017-01-31T12:23:33.425Z,3.81
2017-01-31T12:28:29.968Z,4.08
2017-01-31T12:33:26.501Z,4.06
2017-01-31T12:38:22.564Z,3.70
2017-01-31T12:43:19.143Z,3.87
2017-01-31T12:48:15.662Z,3.84
2017-01-31T12:53:12.509Z,3.65
2017-01-31T12:58:08.657Z,3.59
2017-01-31T13:03:05.085Z,3.68
2017-01-31T13:08:04.220Z,3.87
2017-01-31T13:13:00.032Z,3.88
2017-01-31T13:17:56.425Z,3.83
2017-01-31T13:22:52.540Z,3.74
2017-01-31T13:27:48.835Z,3.91
2017-01-31T13:32:45.373Z,3.66
2017-01-31T13:37:41.834Z,3.70
2017-01-31T13:42:38.144Z,3.66
2017-01-31T13:47:35.474Z,3.68
2017-01-31T13:52:31.508Z,3.70
2017-01-31T13:57:27.862Z,3.55
2017-01-31T14:02:24.240Z,3.56
2017-01-31T14:07:20.398Z,3.34
2017-01-31T14:12:16.717Z,3.48
2017-01-31T14:17:14.178Z,3.60
2017-01-31T14:22:10.281Z,3.28
2017-01-31T14:27:06.661Z,3.36
2017-01-31T14:32:03.088Z,3.32
2017-01-31T14:36:58.889Z,3.26
2017-01-31T14:41:55.287Z,3.22
2017-01-31T14:46:51.794Z,3.03
2017-01-31T14:51:49.462Z,3.08
2017-01-31T14:56:45.228Z,3.29
2017-01-31T15:01:41.847Z,3.21
2017-01-31T15:06:38.311Z,3.29
2017-01-31T15:11:34.748Z,3.23
2017-01-31T15:16:31.288Z,3.31
2017-01-31T15:21:27.770Z,3.26
2017-01-31T15:26:25.264Z,3.26
2017-01-31T15:31:21.235Z,3.32
2017-01-31T15:36:17.606Z,3.41
2017-01-31T15:41:14.203Z,3.37
2017-01-31T15:46:12.963Z,3.34
2017-01-31T15:51:08.725Z,3.16
2017-01-31T15:56:05.359Z,3.22
2017-01-31T16:01:01.722Z,3.11
2017-01-31T16:05:58.081Z,3.10
2017-01-31T16:10:54.218Z,3.14
2017-01-31T16:15:50.460Z,3.05
2017-01-31T16:20:47.820Z,3.04
2017-01-31T16:25:44.077Z,3.04
2017-01-31T16:30:41.303Z,3.04
2017-01-31T16:35:37.844Z,3.03
2017-01-31T16:40:34.460Z,2.98
2017-01-31T16:45:30.839Z,3.01
2017-01-31T16:50:27.214Z,3.01
2017-01-31T16:55:24.340Z,2.93
2017-01-31T17:00:20.937Z,2.95
2017-01-31T17:05:17.272Z,2.87
2017-01-31T17:10:13.737Z,2.97
2017-01-31T17:15:10.337Z,2.85
2017-01-31T17:20:06.848Z,2.92
2017-01-31T17:25:03.403Z,3.00
2017-01-31T17:30:02.843Z,2.93
2017-01-31T17:34:58.769Z,2.82
2017-01-31T17:39:55.113Z,2.80
2017-01-31T17:44:51.406Z,2.90
2017-01-31T17:49:48.116Z,2.80
2017-01-31T17:54:44.206Z,2.92
2017-01-31T17:59:40.734Z,2.93
2017-01-31T18:04:37.303Z,3.07
2017-01-31T18:09:33.590Z,3.10
2017-01-31T18:14:30.022Z,3.07
2017-01-31T18:19:26.478Z,2.97
2017-01-31T18:24:22.819Z,2.92
2017-01-31T18:29:19.322Z,2.92
2017-01-31T18:34:16.492Z,2.98
2017-01-31T18:39:13.257Z,2.89
2017-01-31T18:44:09.712Z,2.92
2017-01-31T18:49:05.937Z,3.01
2017-01-31T18:54:02.066Z,2.97
2017-01-31T18:58:58.718Z,3.05
2017-01-31T19:03:55.130Z,2.95
2017-01-31T19:08:51.464Z,2.97
2017-01-31T19:13:48.024Z,3.01
2017-01-31T19:18:44.492Z,2.98
2017-01-31T19:23:41.090Z,3.05
2017-01-31T19:28:37.848Z,3.00
2017-01-31T19:33:36.677Z,2.95
2017-01-31T19:38:32.443Z,2.90
2017-01-31T19:43:28.809Z,2.95
2017-01-31T19:48:25.381Z,2.85
2017-01-31T19:58:21.987Z,2.87
2017-01-31T20:03:18.449Z,2.86
2017-01-31T20:08:14.901Z,2.85
2017-01-31T20:13:11.467Z,2.83
2017-01-31T20:18:07.329Z,2.83
2017-01-31T20:23:03.623Z,2.85
2017-01-31T20:27:59.785Z,2.80
2017-01-31T20:32:56.781Z,2.83
2017-01-31T20:37:53.885Z,2.82
2017-01-31T20:42:49.985Z,2.82
2017-01-31T20:47:46.430Z,2.80
2017-01-31T20:52:42.807Z,2.75
2017-01-31T20:57:39.471Z,2.77
2017-01-31T21:02:35.821Z,2.74
2017-01-31T21:07:32.219Z,2.75
2017-01-31T21:12:28.542Z,2.75
2017-01-31T21:17:25.001Z,2.83
2017-01-31T21:22:21.216Z,2.85
2017-01-31T21:27:17.629Z,2.86
2017-01-31T21:32:14.101Z,2.79
2017-01-31T21:37:09.980Z,2.80
2017-01-31T21:42:06.701Z,2.89
2017-01-31T21:47:03.155Z,2.82
2017-01-31T21:51:59.516Z,2.92
2017-01-31T21:56:57.173Z,2.92
2017-01-31T22:01:53.778Z,2.92
2017-01-31T22:06:50.220Z,2.92
2017-01-31T22:11:46.698Z,3.04
2017-01-31T22:16:43.532Z,2.93
2017-01-31T22:21:40.259Z,2.89
2017-01-31T22:26:36.855Z,2.93
2017-01-31T22:31:33.131Z,2.87
2017-01-31T22:36:29.607Z,2.92
2017-01-31T22:41:25.974Z,2.86
2017-01-31T22:46:22.403Z,2.87
2017-01-31T22:51:19.605Z,2.89
2017-01-31T22:56:16.074Z,2.77
2017-01-31T23:01:12.373Z,2.92
2017-01-31T23:06:09.423Z,2.97
2017-01-31T23:11:05.740Z,2.92
2017-01-31T23:16:03.362Z,2.87
2017-01-31T23:20:59.429Z,2.80
2017-01-31T23:25:56.914Z,2.87
2017-01-31T23:30:54.209Z,2.89
2017-01-31T23:35:50.766Z,2.89
2017-01-31T23:40:47.047Z,2.82
2017-01-31T23:45:43.482Z,2.71
2017-01-31T23:50:39.647Z,2.74
2017-01-31T23:55:36.267Z,2.64
